| time (UTC) | temp F | wind direction | speed MPH | gust MPH | rain 1hr in | rain 24hr in | rain mn in | humidity % | barometer mb |
| 20260504214513 | 64 | 194 | 0.0 | 0.0 | 0.00 | 0.00 | 0.00 | 1 | 1015.1 |
| 20260504213028 | 63 | 179 | 0.0 | 0.0 | 0.00 | 0.00 | 0.00 | 1 | 1015.1 |
| 20260504211511 | 63 | 188 | 0.0 | 0.0 | 0.00 | 0.00 | 0.00 | 1 | 1014.8 |
| 20260504210101 | 62 | 148 | 0.0 | 0.0 | 0.00 | 0.00 | 0.00 | 1 | 1014.6 |
| 20260504204557 | 61 | 148 | 0.0 | 0.0 | 0.00 | 0.00 | 0.00 | 1 | 1014.6 |
| 20260504203112 | 61 | 147 | 0.0 | 0.0 | 0.00 | 0.00 | 0.00 | 1 | 1014.3 |
| 20260504201547 | 60 | 147 | 0.0 | 0.0 | 0.00 | 0.00 | 0.00 | 1 | 1014.2 |
| 20260504200046 | 61 | 147 | 0.0 | 0.0 | 0.00 | 0.00 | 0.00 | 1 | 1014.1 |
| 20260504194549 | 61 | 147 | 0.0 | 0.0 | 0.00 | 0.00 | 0.00 | 1 | 1013.7 |
| 20260504193040 | 61 | 148 | 0.0 | 0.0 | 0.00 | 0.00 | 0.00 | 1 | 1013.5 |
| 20260504191529 | 62 | 148 | 0.0 | 0.0 | 0.00 | 0.00 | 0.00 | 1 | 1013.3 |
| 20260504190027 | 62 | 148 | 0.0 | 0.0 | 0.00 | 0.00 | 0.00 | 1 | 1013.3 |
| 20260504184521 | 62 | 148 | 0.0 | 0.0 | 0.00 | 0.00 | 0.00 | 1 | 1013.1 |
| 20260504183021 | 62 | 148 | 0.0 | 0.0 | 0.00 | 0.00 | 0.00 | 1 | 1013.1 |
| 20260504181512 | 61 | 148 | 0.0 | 0.0 | 0.00 | 0.00 | 0.00 | 1 | 1013.2 |
| 20260504180008 | 62 | 148 | 0.0 | 0.0 | 0.00 | 0.00 | 0.00 | 1 | 1013.3 |
| 20260504174503 | 62 | 148 | 0.0 | 0.0 | 0.00 | 0.00 | 0.00 | 1 | 1013.4 |
| 20260504173109 | 63 | 148 | 0.0 | 0.0 | 0.00 | 0.00 | 0.00 | 1 | 1013.5 |
| 20260504171555 | 63 | 148 | 0.0 | 0.0 | 0.00 | 0.00 | 0.00 | 1 | 1013.5 |
| 20260504081533 | 76 | 89 | 0.0 | 0.0 | 0.00 | 0.00 | 0.00 | 77 | 1013.4 |
| 20260504050010 | 82 | 175 | 5.0 | 14.0 | 0.00 | 0.00 | 0.00 | 64 | 1012.1 |
| 20260504044517 | 82 | 179 | 5.0 | 11.0 | 0.00 | 0.00 | 0.00 | 63 | 1012.0 |
| 20260504043004 | 83 | 32 | 4.0 | 12.0 | 0.00 | 0.00 | 0.00 | 62 | 1012.1 |
| 20260504041557 | 83 | 64 | 4.0 | 11.0 | 0.00 | 0.00 | 0.00 | 61 | 1012.0 |
| 20260504040053 | 82 | 56 | 5.0 | 12.0 | 0.00 | 0.00 | 0.00 | 60 | 1012.1 |
| 20260504034554 | 83 | 14 | 5.0 | 13.0 | 0.00 | 0.00 | 0.00 | 58 | 1012.3 |
| 20260504033053 | 83 | 87 | 1.0 | 15.0 | 0.00 | 0.00 | 0.00 | 61 | 1012.4 |
| 20260504031541 | 84 | 185 | 0.0 | 11.0 | 0.00 | 0.00 | 0.00 | 61 | 1012.7 |
| 20260504030035 | 83 | 39 | 3.0 | 12.0 | 0.00 | 0.00 | 0.00 | 61 | 1013.0 |
| 20260504024533 | 84 | 64 | 2.0 | 10.0 | 0.00 | 0.00 | 0.00 | 58 | 1013.2 |
| 20260504023027 | 83 | 66 | 3.0 | 13.0 | 0.00 | 0.00 | 0.00 | 62 | 1013.3 |
| 20260504021531 | 83 | 102 | 2.0 | 8.0 | 0.00 | 0.00 | 0.00 | 63 | 1013.6 |
| 20260504020020 | 83 | 170 | 2.0 | 10.0 | 0.00 | 0.00 | 0.00 | 61 | 1013.9 |
| 20260504014515 | 83 | 84 | 2.0 | 9.0 | 0.00 | 0.00 | 0.00 | 63 | 1014.3 |
| 20260504013010 | 82 | 122 | 0.0 | 7.0 | 0.00 | 0.00 | 0.00 | 64 | 1014.5 |
| 20260504011503 | 81 | 53 | 1.0 | 11.0 | 0.00 | 0.00 | 0.00 | 66 | 1014.6 |
| 20260504010109 | 81 | 75 | 4.0 | 12.0 | 0.00 | 0.00 | 0.00 | 66 | 1014.8 |
| 20260504004556 | 81 | 129 | 2.0 | 9.0 | 0.00 | 0.00 | 0.00 | 68 | 1015.0 |
| 20260504003052 | 81 | 70 | 1.0 | 8.0 | 0.00 | 0.00 | 0.00 | 68 | 1015.1 |
| 20260504001606 | 81 | 175 | 0.0 | 10.0 | 0.00 | 0.00 | 0.00 | 69 | 1015.2 |
| 20260504000043 | 80 | 117 | 2.0 | 11.0 | 0.00 | 0.00 | 0.00 | 70 | 1015.3 |
| 20260503234537 | 80 | 146 | 1.0 | 10.0 | 0.00 | 0.00 | 0.00 | 72 | 1015.2 |
| 20260503233034 | 79 | 128 | 1.0 | 11.0 | 0.00 | 0.00 | 0.00 | 72 | 1015.0 |
| 20260503231529 | 79 | 140 | 1.0 | 6.0 | 0.00 | 0.00 | 0.00 | 74 | 1014.8 |
| 20260503230025 | 78 | 62 | 0.0 | 7.0 | 0.00 | 0.00 | 0.00 | 76 | 1014.8 |
| 20260503224519 | 76 | 103 | 2.0 | 8.0 | 0.00 | 0.00 | 0.00 | 77 | 1014.8 |
| 20260503223015 | 75 | 66 | 0.0 | 5.0 | 0.00 | 0.00 | 0.00 | 77 | 1014.6 |
| 20260503221513 | 73 | 137 | 0.0 | 4.0 | 0.00 | 0.00 | 0.00 | 74 | 1014.6 |
| 20260503220008 | 72 | 179 | 0.0 | 3.0 | 0.00 | 0.00 | 0.00 | 66 | 1014.6 |